Time;durP1;ratioP1;P1;durP2;ratioP2;P2;SDS_P1;SDS_P2;PMS_P1;PMS_P2;Temp;Humidity;BMP_temperature;BMP_pressure;BME280_temperature;BME280_humidity;BME280_pressure;Samples;Min_cycle;Max_cycle;Signal;HPM_P1;HPM_P2
2022/01/08 00:00:17;;;;;;;5.80;3.10;;;;;;;-3.27;72.93;99224.65;103473;1300;22733;-26
2022/01/08 00:02:43;;;;;;;5.50;2.30;;;;;;;-3.34;72.99;99227.36;103535;1300;24315;-29
2022/01/08 00:05:09;;;;;;;6.60;2.70;;;;;;;-3.36;72.65;99223.65;103489;1302;24345;-29
2022/01/08 00:07:35;;;;;;;10.00;4.20;;;;;;;-3.29;72.44;99221.74;103558;1300;24219;-26
2022/01/08 00:10:01;;;;;;;8.80;4.50;;;;;;;-3.26;72.64;99218.06;103600;1300;24376;-26
2022/01/08 00:12:28;;;;;;;17.90;4.50;;;;;;;-3.22;72.48;99214.11;103522;1300;24167;-29
2022/01/08 00:14:53;;;;;;;3.00;1.40;;;;;;;-3.15;71.89;99215.52;103524;1300;24227;-29
2022/01/08 00:17:22;;;;;;;3.90;2.10;;;;;;;-3.26;72.51;99217.84;103519;1300;24497;-25
2022/01/08 00:19:50;;;;;;;20.10;5.70;;;;;;;-3.19;72.15;99212.48;103564;1300;24342;-26
2022/01/08 00:22:16;;;;;;;13.20;3.60;;;;;;;-3.29;72.06;99214.41;103554;1300;24188;-27
2022/01/08 00:24:42;;;;;;;14.10;4.90;;;;;;;-3.26;72.44;99218.25;103568;1300;25441;-25
2022/01/08 00:27:08;;;;;;;5.80;3.30;;;;;;;-3.29;72.98;99216.85;103544;1301;24355;-25
2022/01/08 00:29:34;;;;;;;9.10;4.10;;;;;;;-3.17;72.62;99213.20;103517;1300;24223;-26
2022/01/08 00:32:00;;;;;;;9.30;3.10;;;;;;;-3.29;72.92;99217.02;103593;1300;24370;-30
2022/01/08 00:34:26;;;;;;;9.20;4.40;;;;;;;-3.22;72.21;99211.98;103568;1300;24202;-25
2022/01/08 00:36:52;;;;;;;7.00;3.20;;;;;;;-3.34;72.69;99218.30;103573;1300;24203;-26
2022/01/08 00:39:17;;;;;;;9.50;3.00;;;;;;;-3.18;72.56;99208.38;103419;1300;24197;-27
2022/01/08 00:41:43;;;;;;;6.20;2.60;;;;;;;-3.32;72.91;99212.66;103501;1300;24323;-27
2022/01/08 00:44:10;;;;;;;6.70;3.10;;;;;;;-3.42;72.98;99211.72;103522;1300;24345;-29
2022/01/08 00:46:35;;;;;;;5.50;2.90;;;;;;;-3.48;73.28;99212.69;103564;1300;24339;-29
2022/01/08 00:49:02;;;;;;;5.60;3.60;;;;;;;-3.37;73.05;99209.61;103564;1300;24222;-29
2022/01/08 00:51:28;;;;;;;5.90;2.90;;;;;;;-3.38;73.42;99212.23;103586;1300;24263;-25
2022/01/08 00:53:54;;;;;;;10.90;3.30;;;;;;;-3.51;73.81;99210.94;103450;1300;24335;-25
2022/01/08 00:56:20;;;;;;;9.30;4.10;;;;;;;-3.48;73.96;99208.11;103525;1300;24186;-25
2022/01/08 00:58:45;;;;;;;8.50;3.40;;;;;;;-3.43;73.63;99204.60;103539;1300;24265;-26
2022/01/08 01:01:11;;;;;;;6.30;3.10;;;;;;;-3.37;73.15;99204.34;103564;1300;24456;-25
2022/01/08 01:03:37;;;;;;;7.80;4.00;;;;;;;-3.40;73.49;99199.31;103595;1300;24277;-26
2022/01/08 01:06:06;;;;;;;7.60;3.20;;;;;;;-3.48;73.32;99194.26;103542;1300;24224;-30
2022/01/08 01:08:33;;;;;;;1.40;1.10;;;;;;;-3.51;73.99;99194.33;103602;1300;24168;-26
2022/01/08 01:10:59;;;;;;;8.10;3.10;;;;;;;-3.41;73.47;99188.37;103476;1300;24384;-29
2022/01/08 01:13:24;;;;;;;9.80;2.70;;;;;;;-3.31;72.80;99182.33;103556;1300;24213;-26
2022/01/08 01:15:50;;;;;;;6.60;3.00;;;;;;;-3.34;73.20;99177.68;103552;1300;24186;-26
2022/01/08 01:18:16;;;;;;;5.40;2.70;;;;;;;-3.36;72.93;99176.60;103494;1300;24180;-28
2022/01/08 01:20:42;;;;;;;8.20;3.30;;;;;;;-3.42;73.08;99169.88;103590;1300;22660;-27
2022/01/08 01:23:13;;;;;;;7.20;2.60;;;;;;;-3.36;73.06;99167.84;103590;1300;22508;-29
2022/01/08 01:25:45;;;;;;;11.30;2.70;;;;;;;-3.29;72.99;99162.64;103552;1300;22530;-29
2022/01/08 01:28:24;;;;;;;6.10;3.60;;;;;;;-3.34;72.89;99156.68;103619;1300;24291;-29
2022/01/08 01:43:38;;;;;;;4.10;3.20;;;;;;;-3.38;73.50;99150.48;103471;1300;22519;-27
2022/01/08 01:48:32;;;;;;;7.50;3.40;;;;;;;-3.31;73.53;99145.95;103542;1300;22615;-29
2022/01/08 01:50:58;;;;;;;7.50;3.30;;;;;;;-3.38;73.58;99140.89;103567;1300;24373;-29
2022/01/08 01:53:24;;;;;;;6.00;3.80;;;;;;;-3.33;73.57;99138.34;103595;1301;22502;-25
2022/01/08 01:55:50;;;;;;;11.90;3.60;;;;;;;-3.44;74.20;99136.97;103562;1300;24371;-29
2022/01/08 01:58:16;;;;;;;17.10;3.70;;;;;;;-3.45;73.70;99127.73;103535;1300;24163;-25
2022/01/08 02:00:43;;;;;;;7.30;3.10;;;;;;;-3.58;74.06;99130.45;103559;1300;22526;-29
2022/01/08 02:03:09;;;;;;;13.90;5.50;;;;;;;-3.48;74.07;99135.51;103530;1300;24372;-26
2022/01/08 02:05:35;;;;;;;5.50;2.30;;;;;;;-3.52;74.50;99135.59;103578;1300;24283;-25
2022/01/08 02:08:01;;;;;;;6.80;3.30;;;;;;;-3.47;74.23;99140.66;103545;1300;24277;-27
2022/01/08 02:10:27;;;;;;;7.10;4.00;;;;;;;-3.63;74.85;99135.52;103582;1300;24350;-26
2022/01/08 02:12:53;;;;;;;9.70;3.90;;;;;;;-3.70;75.12;99139.58;103552;1300;24259;-29
2022/01/08 02:15:19;;;;;;;4.20;2.80;;;;;;;-3.72;75.21;99137.77;103565;1300;24295;-29
2022/01/08 02:17:45;;;;;;;10.50;4.50;;;;;;;-3.64;74.61;99137.23;103560;1300;24150;-29
2022/01/08 02:20:11;;;;;;;10.60;4.20;;;;;;;-3.77;75.05;99131.02;103638;1300;24241;-26
2022/01/08 02:22:37;;;;;;;6.50;3.10;;;;;;;-3.81;75.60;99128.31;103587;1300;22506;-26
2022/01/08 02:25:03;;;;;;;5.70;3.70;;;;;;;-3.80;75.85;99125.20;103540;1300;24350;-26
2022/01/08 02:27:29;;;;;;;6.30;3.00;;;;;;;-3.88;76.47;99123.73;103532;1301;24229;-26
2022/01/08 02:29:55;;;;;;;8.50;4.20;;;;;;;-3.84;76.47;99112.27;103548;1300;24252;-26
2022/01/08 02:32:27;;;;;;;6.20;2.90;;;;;;;-3.88;75.99;99115.33;103642;1300;24330;-31
2022/01/08 02:34:53;;;;;;;5.50;3.00;;;;;;;-3.86;76.21;99114.80;103565;1300;22506;-25
2022/01/08 02:37:20;;;;;;;9.10;2.90;;;;;;;-3.92;76.45;99117.38;103528;1300;24413;-25
2022/01/08 02:39:48;;;;;;;5.60;3.10;;;;;;;-3.83;75.85;99112.83;103668;1300;24222;-30
2022/01/08 02:42:17;;;;;;;8.20;3.30;;;;;;;-3.83;76.05;99107.12;103549;1300;23941;-26
2022/01/08 02:44:43;;;;;;;3.40;2.20;;;;;;;-3.89;76.46;99106.66;103669;1300;22923;-30
2022/01/08 02:47:09;;;;;;;9.60;5.20;;;;;;;-3.88;76.90;99097.30;103581;1300;24354;-26
2022/01/08 02:49:35;;;;;;;4.00;2.70;;;;;;;-3.86;77.38;99096.34;103592;1300;24616;-29
2022/01/08 02:52:02;;;;;;;7.30;4.00;;;;;;;-3.92;77.45;99093.09;103586;1300;24237;-25
2022/01/08 02:54:28;;;;;;;5.10;2.30;;;;;;;-3.85;77.53;99089.75;103575;1300;22515;-29
2022/01/08 02:56:54;;;;;;;8.70;3.70;;;;;;;-3.87;78.00;99079.79;103549;1300;22564;-25
2022/01/08 02:59:20;;;;;;;6.00;2.70;;;;;;;-3.88;78.58;99079.46;103582;1300;24186;-28
2022/01/08 03:01:46;;;;;;;6.50;3.70;;;;;;;-3.85;78.41;99077.73;103593;1300;24351;-30
2022/01/08 03:04:13;;;;;;;9.50;3.90;;;;;;;-3.76;78.60;99073.33;103505;1302;24214;-25
2022/01/08 03:06:38;;;;;;;9.70;3.60;;;;;;;-3.60;78.47;99073.75;103457;1301;22867;-27
2022/01/08 03:09:05;;;;;;;4.80;3.10;;;;;;;-3.55;78.82;99074.60;103542;1300;24274;-28
2022/01/08 03:11:31;;;;;;;5.00;3.10;;;;;;;-3.42;77.68;99079.20;103507;1300;24286;-26
2022/01/08 03:13:57;;;;;;;5.80;4.00;;;;;;;-3.36;77.72;99075.61;103611;1300;24418;-25
2022/01/08 03:16:23;;;;;;;11.80;4.60;;;;;;;-3.34;77.60;99075.98;103658;1300;24259;-28
2022/01/08 03:18:49;;;;;;;8.00;3.90;;;;;;;-3.31;77.81;99076.64;103550;1300;24253;-28
2022/01/08 03:21:18;;;;;;;9.70;4.90;;;;;;;-3.22;77.32;99073.86;103515;1300;24348;-26
2022/01/08 03:23:49;;;;;;;8.30;4.00;;;;;;;-3.15;78.23;99075.62;103562;1300;25382;-28
2022/01/08 03:26:16;;;;;;;8.40;3.90;;;;;;;-3.04;77.55;99075.75;103556;1300;22510;-31
2022/01/08 03:28:42;;;;;;;3.80;2.20;;;;;;;-3.03;77.59;99067.97;103648;1300;22781;-28
2022/01/08 03:31:08;;;;;;;9.70;3.60;;;;;;;-2.97;76.70;99068.92;103522;1300;26285;-25
2022/01/08 03:33:34;;;;;;;5.10;2.80;;;;;;;-3.03;77.10;99067.19;103565;1300;24174;-31
2022/01/08 03:36:00;;;;;;;9.70;3.00;;;;;;;-3.02;77.30;99064.95;103568;1300;24452;-27
2022/01/08 03:38:25;;;;;;;6.90;3.70;;;;;;;-3.08;77.05;99064.50;103523;1300;24224;-26
2022/01/08 03:40:52;;;;;;;8.70;3.70;;;;;;;-2.93;76.35;99061.27;103561;1300;24347;-26
2022/01/08 03:43:18;;;;;;;17.30;3.30;;;;;;;-2.99;76.63;99063.98;103540;1300;24200;-28
2022/01/08 03:45:44;;;;;;;7.10;3.70;;;;;;;-2.95;77.40;99060.02;103581;1300;24282;-25
2022/01/08 03:50:39;;;;;;;7.70;3.80;;;;;;;-2.85;77.83;99060.63;103593;1300;24016;-26
2022/01/08 03:53:05;;;;;;;7.80;3.40;;;;;;;-2.80;77.94;99059.91;103540;1300;24186;-27
2022/01/08 03:55:31;;;;;;;6.90;3.70;;;;;;;-2.85;77.89;99057.65;103552;1300;24177;-27
2022/01/08 03:57:57;;;;;;;9.00;3.90;;;;;;;-2.76;77.77;99055.37;103536;1300;24295;-28
2022/01/08 04:00:23;;;;;;;7.20;4.00;;;;;;;-2.76;78.19;99053.27;103526;1300;24380;-25
2022/01/08 04:02:50;;;;;;;4.80;3.00;;;;;;;-2.81;78.08;99052.64;103517;1300;24274;-28
2022/01/08 04:05:15;;;;;;;12.50;3.90;;;;;;;-2.81;78.70;99053.27;103509;1300;24432;-29
2022/01/08 04:07:41;;;;;;;4.70;2.50;;;;;;;-2.83;78.13;99052.27;103511;1300;24408;-27
2022/01/08 04:10:07;;;;;;;6.40;2.70;;;;;;;-2.78;77.91;99052.40;102998;1300;717621;-29
2022/01/08 04:12:40;;;;;;;10.10;3.40;;;;;;;-2.70;78.10;99053.33;103476;1301;24416;-29
2022/01/08 04:15:19;;;;;;;8.00;3.50;;;;;;;-2.73;78.69;99049.19;103555;1300;22749;-26
2022/01/08 04:17:45;;;;;;;14.70;4.10;;;;;;;-2.70;78.49;99051.62;103532;1300;22733;-30
2022/01/08 04:20:11;;;;;;;17.90;3.00;;;;;;;-2.68;78.83;99051.63;103471;1300;22877;-27
2022/01/08 04:22:37;;;;;;;11.00;3.20;;;;;;;-2.68;78.86;99044.59;103562;1300;24168;-31
2022/01/08 04:25:03;;;;;;;5.40;3.00;;;;;;;-2.66;78.47;99046.16;103544;1300;22507;-32
2022/01/08 04:27:29;;;;;;;4.20;2.70;;;;;;;-2.67;78.70;99046.92;103588;1300;24321;-28
2022/01/08 04:29:55;;;;;;;4.20;2.60;;;;;;;-2.57;79.04;99041.81;103588;1300;24286;-29
2022/01/08 04:32:21;;;;;;;5.40;3.50;;;;;;;-2.56;79.08;99037.46;103576;1300;24217;-29
2022/01/08 04:34:47;;;;;;;6.10;4.50;;;;;;;-2.61;77.89;99043.45;103567;1300;24224;-29
2022/01/08 04:37:13;;;;;;;4.70;3.10;;;;;;;-2.54;78.81;99042.23;103545;1300;24256;-25
2022/01/08 04:39:39;;;;;;;11.70;3.30;;;;;;;-2.56;78.71;99043.50;103551;1302;24307;-26
2022/01/08 04:42:06;;;;;;;6.30;3.20;;;;;;;-2.57;79.01;99047.44;103592;1302;24186;-28
2022/01/08 04:44:32;;;;;;;7.60;3.00;;;;;;;-2.54;79.35;99049.77;103508;1300;24365;-28
2022/01/08 04:46:58;;;;;;;4.50;2.70;;;;;;;-2.49;79.38;99046.39;103520;1301;24350;-25
2022/01/08 04:49:24;;;;;;;4.90;3.00;;;;;;;-2.44;79.11;99043.38;103520;1300;24316;-28
2022/01/08 04:51:50;;;;;;;6.50;3.60;;;;;;;-2.40;78.97;99037.99;103590;1300;24216;-27
2022/01/08 04:54:15;;;;;;;8.50;3.70;;;;;;;-2.38;79.82;99035.52;103661;1299;24460;-27
2022/01/08 04:56:41;;;;;;;6.40;3.50;;;;;;;-2.31;79.74;99039.90;103629;1302;24182;-25
2022/01/08 04:59:07;;;;;;;11.40;5.10;;;;;;;-2.34;78.94;99048.38;103570;1300;24249;-31
2022/01/08 05:01:33;;;;;;;6.90;3.50;;;;;;;-2.41;79.87;99049.77;103586;1300;23130;-28
2022/01/08 05:04:00;;;;;;;6.80;3.30;;;;;;;-2.38;79.24;99046.57;103613;1301;24185;-25
2022/01/08 05:06:25;;;;;;;6.10;4.00;;;;;;;-2.42;79.02;99045.70;103581;1300;24163;-28
2022/01/08 05:08:51;;;;;;;13.60;4.20;;;;;;;-2.41;79.36;99042.45;103573;1302;24294;-30
2022/01/08 05:11:17;;;;;;;13.30;3.20;;;;;;;-2.38;79.76;99045.84;103598;1300;24253;-25
2022/01/08 05:13:44;;;;;;;7.60;4.00;;;;;;;-2.36;79.42;99042.58;103506;1300;24174;-27
2022/01/08 05:16:11;;;;;;;5.00;3.60;;;;;;;-2.34;80.06;99032.21;103536;1302;22961;-26
2022/01/08 05:18:37;;;;;;;4.80;3.00;;;;;;;-2.27;80.30;99032.73;103576;1300;24215;-28
2022/01/08 05:21:12;;;;;;;13.50;3.90;;;;;;;-2.29;79.48;99032.59;103535;1300;24309;-28
2022/01/08 05:23:38;;;;;;;6.80;3.40;;;;;;;-2.32;79.91;99028.60;103571;1300;23003;-29
2022/01/08 05:26:04;;;;;;;11.90;3.90;;;;;;;-2.39;79.93;99033.30;103556;1302;24601;-29
2022/01/08 05:28:30;;;;;;;8.60;3.30;;;;;;;-2.38;79.60;99028.35;103555;1302;24342;-25
2022/01/08 05:30:56;;;;;;;2.30;1.90;;;;;;;-2.35;79.68;99027.41;103554;1303;24408;-26
2022/01/08 05:33:22;;;;;;;7.30;3.60;;;;;;;-2.30;79.92;99031.94;103508;1301;22512;-29
2022/01/08 05:35:48;;;;;;;10.80;2.80;;;;;;;-2.26;79.85;99031.92;103530;1302;24385;-26
2022/01/08 05:38:14;;;;;;;6.70;3.60;;;;;;;-2.19;80.08;99029.62;103580;1300;24252;-26
2022/01/08 05:40:39;;;;;;;6.80;3.40;;;;;;;-2.16;79.67;99022.21;103532;1301;23839;-28
2022/01/08 05:43:05;;;;;;;9.90;4.10;;;;;;;-2.09;80.42;99026.34;103543;1300;24409;-26
2022/01/08 05:45:31;;;;;;;5.00;2.60;;;;;;;-2.07;79.83;99022.46;103516;1302;24319;-26
2022/01/08 05:47:57;;;;;;;5.70;2.30;;;;;;;-2.14;78.68;99026.25;103559;1301;24558;-25
2022/01/08 05:50:23;;;;;;;5.80;3.50;;;;;;;-2.10;79.27;99023.30;103532;1300;24328;-29
2022/01/08 05:52:49;;;;;;;5.30;3.50;;;;;;;-2.08;79.08;99023.67;103574;1301;24312;-29
2022/01/08 05:55:16;;;;;;;8.90;3.80;;;;;;;-2.08;79.21;99029.61;103493;1302;24181;-25
2022/01/08 05:57:42;;;;;;;9.40;3.70;;;;;;;-2.06;78.98;99031.20;103658;1302;24251;-28
2022/01/08 06:00:08;;;;;;;4.90;2.40;;;;;;;-2.11;78.51;99032.30;103590;1302;22524;-32
2022/01/08 06:02:35;;;;;;;8.00;3.10;;;;;;;-2.17;77.18;99037.54;103565;1302;25434;-26
2022/01/08 06:05:01;;;;;;;9.00;2.90;;;;;;;-2.05;79.59;99036.40;103578;1299;24254;-26
2022/01/08 06:07:27;;;;;;;5.00;2.80;;;;;;;-2.01;78.84;99031.80;103628;1300;24195;-26
2022/01/08 06:09:53;;;;;;;7.10;3.30;;;;;;;-2.00;79.33;99028.02;103487;1300;24309;-26
2022/01/08 06:12:19;;;;;;;7.50;3.50;;;;;;;-2.00;79.16;99021.54;103537;1300;24185;-25
2022/01/08 06:14:45;;;;;;;8.30;4.00;;;;;;;-1.96;78.90;99025.46;103515;1300;24468;-25
2022/01/08 06:17:11;;;;;;;6.30;3.40;;;;;;;-1.94;80.02;99024.61;103489;1302;24306;-28
2022/01/08 06:19:37;;;;;;;10.90;2.90;;;;;;;-1.92;79.86;99023.16;103530;1300;22516;-24
2022/01/08 06:22:03;;;;;;;9.20;3.70;;;;;;;-1.92;78.36;99025.61;103583;1300;22492;-28
2022/01/08 06:24:29;;;;;;;6.60;3.10;;;;;;;-1.90;78.65;99024.97;103560;1302;24371;-28
2022/01/08 06:26:55;;;;;;;10.40;3.60;;;;;;;-1.80;79.93;99022.59;103495;1301;24167;-31
2022/01/08 06:29:21;;;;;;;6.10;3.70;;;;;;;-1.84;78.81;99020.64;103585;1300;22502;-28
2022/01/08 06:31:47;;;;;;;10.90;4.80;;;;;;;-1.80;78.96;99018.33;103578;1300;24344;-27
2022/01/08 06:34:13;;;;;;;10.90;4.00;;;;;;;-1.80;79.68;99020.80;103580;1300;24142;-30
2022/01/08 06:36:39;;;;;;;8.30;2.60;;;;;;;-1.79;79.79;99019.64;103598;1300;24294;-28
2022/01/08 06:39:05;;;;;;;9.70;3.10;;;;;;;-1.86;78.62;99021.77;103552;1300;24153;-25
2022/01/08 06:41:31;;;;;;;8.10;3.90;;;;;;;-1.89;79.19;99026.95;103590;1301;24193;-25
2022/01/08 06:43:59;;;;;;;7.00;4.10;;;;;;;-1.83;78.31;99028.91;103590;1300;22694;-27
2022/01/08 06:46:25;;;;;;;8.20;3.30;;;;;;;-1.87;78.18;99032.77;103480;1302;24242;-27
2022/01/08 06:48:51;;;;;;;4.90;3.10;;;;;;;-1.86;79.10;99035.14;103487;1301;24339;-27
2022/01/08 06:51:17;;;;;;;6.40;3.20;;;;;;;-1.81;79.01;99036.67;103539;1300;24348;-29
2022/01/08 06:53:43;;;;;;;15.80;3.70;;;;;;;-1.75;78.37;99041.11;103551;1300;24216;-28
2022/01/08 06:56:09;;;;;;;5.20;2.60;;;;;;;-1.81;77.21;99039.65;103575;1300;24327;-30
2022/01/08 06:58:35;;;;;;;6.20;3.60;;;;;;;-1.85;77.44;99045.40;103518;1302;24346;-26
2022/01/08 07:01:01;;;;;;;4.10;2.40;;;;;;;-1.91;77.41;99042.92;103543;1300;24163;-31
2022/01/08 07:03:27;;;;;;;8.30;3.20;;;;;;;-1.88;77.44;99042.17;103542;1302;24309;-26
2022/01/08 07:05:53;;;;;;;10.70;2.80;;;;;;;-1.81;76.71;99048.98;103618;1300;24321;-30
2022/01/08 07:08:18;;;;;;;5.90;2.90;;;;;;;-1.84;76.69;99055.36;103539;1300;24250;-27
2022/01/08 07:10:44;;;;;;;6.60;2.80;;;;;;;-1.79;76.59;99052.85;103600;1300;24236;-25
2022/01/08 07:13:10;;;;;;;7.00;4.40;;;;;;;-1.89;77.51;99054.54;103591;1302;24226;-26
2022/01/08 07:15:36;;;;;;;4.50;3.00;;;;;;;-1.73;77.68;99055.48;103590;1300;24370;-29
2022/01/08 07:18:02;;;;;;;6.30;3.00;;;;;;;-1.75;76.44;99056.85;103553;1300;25344;-26
2022/01/08 07:20:28;;;;;;;7.40;3.80;;;;;;;-1.80;76.50;99055.87;103576;1301;22510;-26
2022/01/08 07:22:54;;;;;;;6.70;3.10;;;;;;;-1.87;76.90;99053.95;103591;1300;22682;-26
2022/01/08 07:25:19;;;;;;;10.00;3.50;;;;;;;-1.79;76.28;99060.22;103567;1300;24215;-29
2022/01/08 07:27:45;;;;;;;5.90;2.90;;;;;;;-1.80;76.98;99060.83;103579;1300;24288;-29
2022/01/08 07:30:12;;;;;;;5.70;3.70;;;;;;;-1.75;76.77;99063.58;103578;1302;24211;-26
2022/01/08 07:32:41;;;;;;;20.20;5.20;;;;;;;-1.74;77.02;99062.06;103542;1302;24170;-28
2022/01/08 07:35:07;;;;;;;7.60;4.80;;;;;;;-1.77;77.45;99060.71;103578;1300;24210;-24
2022/01/08 07:37:33;;;;;;;5.60;3.30;;;;;;;-1.75;77.36;99061.75;103566;1302;24376;-25
2022/01/08 07:39:59;;;;;;;9.40;4.10;;;;;;;-1.70;77.16;99062.98;103572;1301;24313;-29
2022/01/08 07:42:25;;;;;;;16.40;4.90;;;;;;;-1.64;76.93;99056.89;103497;1300;24302;-28
2022/01/08 07:44:52;;;;;;;17.90;5.90;;;;;;;-1.66;77.02;99059.66;103541;1300;22514;-26
2022/01/08 07:47:18;;;;;;;32.70;13.00;;;;;;;-1.57;76.96;99059.60;103504;1301;24198;-26
2022/01/08 07:49:44;;;;;;;11.50;5.90;;;;;;;-1.59;77.71;99064.53;103551;1302;24226;-28
2022/01/08 07:52:10;;;;;;;322.80;106.90;;;;;;;-1.54;77.71;99061.96;103572;1302;24423;-26
2022/01/08 07:54:36;;;;;;;15.90;6.70;;;;;;;-1.47;78.02;99056.98;103530;1300;24211;-26
2022/01/08 07:57:02;;;;;;;70.20;31.30;;;;;;;-1.45;78.08;99052.79;103537;1300;24217;-31
2022/01/08 07:59:28;;;;;;;75.20;37.30;;;;;;;-1.39;77.85;99050.14;103561;1300;24450;-29
2022/01/08 08:01:54;;;;;;;55.80;24.70;;;;;;;-1.36;78.45;99051.86;103485;1302;24315;-29
2022/01/08 08:04:19;;;;;;;19.20;9.70;;;;;;;-1.21;78.32;99051.11;103516;1302;22634;-29
2022/01/08 08:06:47;;;;;;;21.90;13.00;;;;;;;-1.12;76.97;99054.54;103513;1300;24349;-28
2022/01/08 08:09:13;;;;;;;7.70;3.60;;;;;;;-1.22;76.39;99053.32;103589;1300;24159;-28
2022/01/08 08:11:40;;;;;;;12.90;3.10;;;;;;;-1.20;75.73;99058.80;103589;1300;24422;-25
2022/01/08 08:14:05;;;;;;;19.40;3.00;;;;;;;-1.22;75.84;99059.30;103559;1300;24212;-29
2022/01/08 08:16:31;;;;;;;10.60;3.50;;;;;;;-1.30;76.13;99063.13;103537;1300;24331;-29
2022/01/08 08:18:57;;;;;;;11.70;5.20;;;;;;;-1.27;75.76;99063.41;103594;1301;24370;-28
2022/01/08 08:21:24;;;;;;;12.90;6.10;;;;;;;-1.31;76.93;99060.45;103588;1302;24293;-26
2022/01/08 08:23:50;;;;;;;8.70;3.80;;;;;;;-1.26;76.66;99059.08;103561;1302;24364;-25
2022/01/08 08:26:16;;;;;;;24.00;6.60;;;;;;;-1.16;77.04;99058.60;103474;1300;24254;-29
2022/01/08 08:28:42;;;;;;;36.50;7.00;;;;;;;-1.18;76.94;99056.83;103536;1302;24265;-28
2022/01/08 08:31:09;;;;;;;8.60;4.60;;;;;;;-1.13;77.71;99056.45;103504;1300;24399;-29
2022/01/08 08:33:35;;;;;;;14.80;3.90;;;;;;;-1.04;77.20;99055.08;103567;1300;24560;-25
2022/01/08 08:36:01;;;;;;;18.80;6.40;;;;;;;-1.00;77.03;99059.50;103560;1302;24219;-29
2022/01/08 08:38:26;;;;;;;27.30;8.80;;;;;;;-0.92;76.99;99062.05;103693;1300;24283;-30
2022/01/08 08:40:53;;;;;;;36.70;16.50;;;;;;;-0.84;77.64;99060.96;103504;1300;24314;-25
2022/01/08 08:43:19;;;;;;;16.50;8.20;;;;;;;-0.76;77.81;99055.54;103577;1300;24360;-25
2022/01/08 08:45:46;;;;;;;114.90;15.90;;;;;;;-0.70;77.15;99056.05;103545;1300;22813;-25
2022/01/08 08:48:12;;;;;;;31.60;8.00;;;;;;;-0.60;77.45;99056.23;103497;1300;24135;-26
2022/01/08 08:50:38;;;;;;;12.30;5.20;;;;;;;-0.52;78.19;99055.34;103550;1302;24283;-29
2022/01/08 08:53:04;;;;;;;7.40;4.50;;;;;;;-0.56;77.02;99058.14;103523;1301;22520;-29
2022/01/08 08:55:30;;;;;;;12.90;5.40;;;;;;;-0.56;77.32;99060.10;103551;1300;24202;-29
2022/01/08 08:57:55;;;;;;;12.80;5.40;;;;;;;-0.58;76.36;99059.55;103537;1300;24197;-27
2022/01/08 09:00:21;;;;;;;18.40;8.00;;;;;;;-0.60;75.99;99058.86;103579;1301;24235;-29
2022/01/08 09:02:48;;;;;;;10.30;4.10;;;;;;;-0.67;75.76;99061.42;103560;1300;24407;-26
2022/01/08 09:05:14;;;;;;;8.60;4.20;;;;;;;-0.67;76.25;99063.01;103500;1301;24323;-29
2022/01/08 09:07:40;;;;;;;7.30;4.40;;;;;;;-0.65;76.34;99065.83;103619;1300;24389;-26
2022/01/08 09:10:09;;;;;;;8.30;3.60;;;;;;;-0.61;76.25;99069.21;103540;1300;24185;-29
2022/01/08 09:12:36;;;;;;;21.90;4.80;;;;;;;-0.69;76.23;99065.09;103515;1301;24221;-31
2022/01/08 09:15:03;;;;;;;10.10;5.10;;;;;;;-0.66;75.92;99068.54;103549;1300;24341;-25
2022/01/08 09:17:29;;;;;;;10.20;4.90;;;;;;;-0.62;75.13;99066.95;103526;1302;24217;-28
2022/01/08 09:19:55;;;;;;;66.20;15.50;;;;;;;-0.47;75.07;99065.33;103564;1300;24330;-29
2022/01/08 09:22:21;;;;;;;201.80;61.60;;;;;;;-0.53;74.71;99065.80;103513;1302;24335;-27
2022/01/08 09:24:47;;;;;;;20.80;7.30;;;;;;;-0.47;74.54;99063.37;103546;1300;22757;-28
2022/01/08 09:27:12;;;;;;;16.50;6.70;;;;;;;-0.47;74.28;99056.69;103571;1301;24256;-29
2022/01/08 09:29:38;;;;;;;28.40;6.80;;;;;;;-0.54;75.07;99056.55;103609;1302;24401;-29
2022/01/08 09:32:05;;;;;;;22.90;7.20;;;;;;;-0.49;74.52;99057.19;103504;1301;24300;-29
2022/01/08 09:34:31;;;;;;;18.30;8.00;;;;;;;-0.53;74.10;99056.64;103573;1302;24371;-25
2022/01/08 09:36:58;;;;;;;21.40;4.60;;;;;;;-0.44;74.26;99053.48;103564;1302;24198;-25
2022/01/08 09:39:24;;;;;;;11.60;4.80;;;;;;;-0.41;74.30;99050.37;103578;1302;24251;-28
2022/01/08 09:41:50;;;;;;;9.30;4.20;;;;;;;-0.44;75.13;99046.59;103537;1300;24263;-31
2022/01/08 09:44:16;;;;;;;10.60;4.50;;;;;;;-0.31;74.06;99040.87;103541;1300;24213;-29
2022/01/08 09:46:42;;;;;;;7.00;4.30;;;;;;;-0.35;74.57;99045.79;103491;1300;22524;-29
2022/01/08 09:49:08;;;;;;;10.10;4.90;;;;;;;-0.28;74.65;99039.34;103527;1300;24223;-29
2022/01/08 09:51:34;;;;;;;12.10;6.70;;;;;;;-0.35;73.77;99034.58;103595;1300;24237;-26
2022/01/08 09:54:02;;;;;;;13.20;5.20;;;;;;;-0.32;73.67;99039.20;103506;1300;24339;-25
2022/01/08 09:56:31;;;;;;;12.20;5.60;;;;;;;-0.28;72.83;99033.70;103524;1300;24321;-25
2022/01/08 09:58:57;;;;;;;5.70;3.20;;;;;;;-0.28;73.45;99032.14;103540;1300;24204;-25
2022/01/08 10:01:26;;;;;;;8.60;4.40;;;;;;;-0.29;73.79;99030.78;103452;1302;23925;-25
2022/01/08 10:03:52;;;;;;;7.50;4.20;;;;;;;-0.21;73.97;99029.63;103540;1300;24231;-25
2022/01/08 10:06:23;;;;;;;17.20;6.50;;;;;;;-0.23;74.22;99032.20;103465;1300;24260;-29
2022/01/08 10:08:49;;;;;;;8.60;5.30;;;;;;;-0.26;74.45;99035.16;103571;1300;22811;-25
2022/01/08 10:11:15;;;;;;;10.40;4.20;;;;;;;-0.17;74.38;99033.46;103569;1300;22896;-29
2022/01/08 10:13:42;;;;;;;12.90;4.10;;;;;;;-0.06;74.24;99030.73;103524;1300;24846;-26
2022/01/08 10:18:42;;;;;;;10.60;5.30;;;;;;;-0.19;75.02;99034.02;103622;1300;22516;-25
2022/01/08 10:21:15;;;;;;;10.70;5.20;;;;;;;-0.17;75.08;99035.03;103558;1302;24253;-29
2022/01/08 10:23:43;;;;;;;7.40;4.80;;;;;;;-0.19;75.27;99031.48;103555;1300;25927;-25
2022/01/08 10:26:10;;;;;;;9.30;3.80;;;;;;;-0.01;74.85;99030.43;103584;1300;24260;-25
2022/01/08 10:28:38;;;;;;;10.50;5.30;;;;;;;0.01;75.40;99030.92;103550;1300;24413;-29
2022/01/08 10:31:10;;;;;;;13.80;4.40;;;;;;;0.03;75.00;99027.95;103574;1300;24213;-29
2022/01/08 10:33:36;;;;;;;8.30;4.40;;;;;;;0.08;75.37;99025.80;103503;1300;23900;-29
2022/01/08 10:36:02;;;;;;;10.30;5.00;;;;;;;0.14;75.36;99028.04;103490;1300;24469;-27
2022/01/08 10:38:29;;;;;;;10.30;5.20;;;;;;;0.17;75.25;99027.95;103561;1300;24360;-27
2022/01/08 10:40:57;;;;;;;13.20;6.50;;;;;;;0.10;75.62;99026.81;103607;1300;22527;-27
2022/01/08 10:43:24;;;;;;;18.00;6.40;;;;;;;0.16;75.73;99029.95;103581;1301;22584;-30
2022/01/08 10:45:51;;;;;;;10.30;5.20;;;;;;;0.17;75.42;99029.13;103568;1300;24357;-26
2022/01/08 10:48:27;;;;;;;14.70;5.30;;;;;;;0.24;74.91;99030.09;103566;1300;24236;-26
2022/01/08 10:50:53;;;;;;;14.30;6.40;;;;;;;0.24;75.31;99024.64;103561;1300;24189;-29
2022/01/08 10:53:19;;;;;;;12.20;5.50;;;;;;;0.30;76.22;99030.39;103611;1300;24296;-29
2022/01/08 10:55:46;;;;;;;8.90;4.80;;;;;;;0.38;76.31;99034.23;103566;1300;24264;-23
2022/01/08 10:58:11;;;;;;;13.80;5.60;;;;;;;0.46;76.27;99033.34;103606;1300;24259;-27
2022/01/08 11:00:37;;;;;;;12.00;6.70;;;;;;;0.47;76.09;99030.41;103784;1300;24178;-27
2022/01/08 11:03:03;;;;;;;13.90;7.20;;;;;;;0.48;75.21;99027.20;104165;1298;22924;-26
2022/01/08 11:05:29;;;;;;;9.20;4.80;;;;;;;0.30;75.18;99032.92;103656;1300;24317;-26
2022/01/08 11:08:13;;;;;;;11.40;5.50;;;;;;;0.41;74.38;99029.71;103637;1301;24257;-26
2022/01/08 11:10:39;;;;;;;5.90;3.40;;;;;;;0.30;74.30;99020.98;103710;1300;24237;-30
2022/01/08 11:13:06;;;;;;;19.80;5.00;;;;;;;0.33;74.24;99016.05;103548;1300;22524;-29
2022/01/08 11:18:01;;;;;;;13.40;4.60;;;;;;;0.32;74.91;99010.47;103517;1300;24350;-25
2022/01/08 11:20:29;;;;;;;9.20;5.90;;;;;;;0.23;74.72;99007.13;103544;1300;24352;-29
2022/01/08 11:22:57;;;;;;;12.80;6.40;;;;;;;0.19;74.65;99007.63;103503;1300;24413;-29
2022/01/08 11:25:25;;;;;;;11.50;6.60;;;;;;;0.13;74.65;99002.05;103597;1300;24298;-25
2022/01/08 11:27:57;;;;;;;16.70;6.60;;;;;;;0.18;74.91;99004.79;103547;1300;24235;-25
2022/01/08 11:30:24;;;;;;;13.10;6.30;;;;;;;0.25;75.76;99011.48;103471;1300;22515;-25
2022/01/08 11:32:52;;;;;;;10.20;5.40;;;;;;;0.43;75.33;99010.02;103573;1300;24300;-31
2022/01/08 11:35:18;;;;;;;13.40;6.40;;;;;;;0.44;74.65;99007.46;103616;1302;24421;-33
2022/01/08 11:37:47;;;;;;;12.10;7.10;;;;;;;0.44;74.33;99000.92;103588;1300;24176;-26
2022/01/08 11:40:16;;;;;;;15.40;4.80;;;;;;;0.25;75.19;98999.94;103564;1300;24154;-26